Share

Angra Dos Reis, Brazil

Santa Cruz Air Base (SBSC) Elev 10 ft | 22.93 °S, 43.72 °W | Change Station

Current weather conditions updated 46 minutes ago

Partly Cloudy
Partly Cloudy
73 °F
Feels Like 73 °F
N
4
Wind Variable Wind from ENE
Sunrise 6:12 AM
Sunset 5:39 PM
Moon Waning Gibbous

Today is forecast to be Cooler than yesterday. Showers and thunderstorms late.

Pressure 29.95 in
Visibility 6.2 miles
Clouds Few 2000 ft
Dew Point 70 °F
Humidity 88%
Rainfall 0.00 in
Snow Depth Not available.
UV 0 out of 16
Pollen Not available.
Air Quality Not available.
Flu Activity Not available.
METAR SBSC 200500Z 07003KT 9999 FEW020 23/21 Q1014

More Conditions Fewer Conditions

Pressure 29.95 in
Visibility 6.2 miles
Clouds Few 2000 ft
Dew Point 70 °F
Humidity 88%
Rainfall 0.00 in
Snow Depth Not available.
UV 0 out of 16
Pollen Not available.
Air Quality Not available.
Flu Activity Not available.
METAR SBSC 200500Z 07003KT 9999 FEW020 23/21 Q1014

More Conditions Fewer Conditions

10-Day Weather Forecast

Almanac

Astronomy

Apr. 20, 2014 Rise Set
Actual Time 6:12 AM BRT 5:39 PM BRT
Civil Twilight 5:49 AM BRT 6:02 PM BRT
Nautical Twilight 5:23 AM BRT 6:28 PM BRT
Astronomical Twilight 4:56 AM BRT 6:55 PM BRT
Moon 10:30 PM BRT 11:05 AM BRT
Length of Visible Light 12h 12m
Length of Day
11h 27m
Tomorrow will be 1m 12s shorter.
Waning Gibbous, 73% of the Moon is Illuminated
Today
Waning Gibbous
Apr 22
Last Quarter
Apr 29
New
May 6
First Quarter
May 14
Full

Yesterday's Extremes

Country Highs Country Lows

Community

  • Sunny day at the coast-Cape Arago Lighthouse
    Sunny day at the coast-Cape Arago Lighthouse
  • Cherry Blossoms
    Cherry Blossoms
  • White-Crowned Sparrow
    White-Crowned Sparrow
  • New Day
    New Day
  • Happy Easter!
    Happy Easter!

WunderPhotos

Upload Photos

1,703,086 photos uploaded!

WunderBlogs® & News

Nearby

Snow Depth

Not available.

Coastal Water Temperatures

Place Temperature
No Stations Reporting

Earthquake Activity

City Distance Mag. Time & Date
No recent earthquake activity has been reported nearby.
Minimum magnitude displayed is 2.5.

Nearby Weather Stations

There are no personal weather stations in this area.

What do you think?

We're not finished. Please let us know what you like, what you don't like, and what you are still missing.